Time,TemperatureF,DewpointF,PressureIn,WindDirection,WindDirectionDegrees,WindSpeedMPH,WindSpeedGustMPH,Humidity,HourlyPrecipIn,Conditions,Clouds,dailyrainin,SoftwareType,DateUTC
2013-02-07 00:04:00,36.5,31.9,30.36,North,0,0.0,0.0,83,0.00,,,0.00,WUHU216HW,2013-02-07 06:04:00,
2013-02-07 00:05:00,36.5,31.9,30.36,North,0,0.0,0.0,83,0.00,,,0.00,WUHU216HW,2013-02-07 06:05:00,
2013-02-07 00:10:00,36.5,32.1,30.36,North,0,0.0,0.0,84,0.00,,,0.00,WUHU216HW,2013-02-07 06:10:00,
2013-02-07 00:15:00,36.4,32.0,30.36,North,0,0.0,0.0,84,0.00,,,0.00,WUHU216HW,2013-02-07 06:15:00,
2013-02-07 00:20:00,36.4,32.0,30.35,North,0,0.0,0.0,84,0.00,,,0.00,WUHU216HW,2013-02-07 06:20:00,
2013-02-07 00:25:00,36.4,32.0,30.35,North,0,0.0,0.0,84,0.00,,,0.00,WUHU216HW,2013-02-07 06:25:00,
2013-02-07 00:30:00,36.4,32.0,30.35,North,0,0.0,0.0,84,0.00,,,0.00,WUHU216HW,2013-02-07 06:30:00,
2013-02-07 00:35:00,36.4,32.0,30.35,North,0,0.0,0.0,84,0.00,,,0.00,WUHU216HW,2013-02-07 06:35:00,
2013-02-07 00:40:00,36.2,31.8,30.35,North,0,0.0,0.0,84,0.00,,,0.00,WUHU216HW,2013-02-07 06:40:00,
2013-02-07 00:45:00,36.2,32.0,30.34,North,0,0.0,0.0,85,0.00,,,0.00,WUHU216HW,2013-02-07 06:45:00,
2013-02-07 00:50:00,36.0,31.9,30.34,North,0,0.0,0.0,85,0.00,,,0.00,WUHU216HW,2013-02-07 06:50:00,
2013-02-07 00:55:00,35.8,31.7,30.34,North,0,0.0,0.0,85,0.00,,,0.00,WUHU216HW,2013-02-07 06:55:00,
2013-02-07 01:00:00,35.8,32.0,30.34,North,0,0.0,0.0,86,0.00,,,0.00,WUHU216HW,2013-02-07 07:00:00,
2013-02-07 01:05:00,35.8,32.0,30.33,North,0,0.0,0.0,86,0.00,,,0.00,WUHU216HW,2013-02-07 07:05:00,
2013-02-07 01:10:00,35.8,32.0,30.33,North,0,0.0,0.0,86,0.00,,,0.00,WUHU216HW,2013-02-07 07:10:00,
2013-02-07 01:15:00,35.8,32.0,30.33,North,0,0.0,0.0,86,0.00,,,0.00,WUHU216HW,2013-02-07 07:15:00,
2013-02-07 01:20:00,35.8,32.0,30.33,North,0,0.0,0.0,86,0.00,,,0.00,WUHU216HW,2013-02-07 07:20:00,
2013-02-07 01:25:00,35.8,32.0,30.32,North,0,0.0,0.0,86,0.00,,,0.00,WUHU216HW,2013-02-07 07:25:00,
2013-02-07 01:30:00,35.8,32.2,30.32,North,0,0.0,0.0,87,0.00,,,0.00,WUHU216HW,2013-02-07 07:30:00,
2013-02-07 01:35:00,35.6,31.8,30.32,North,0,0.0,0.0,86,0.00,,,0.00,WUHU216HW,2013-02-07 07:35:00,
2013-02-07 01:40:00,35.8,32.2,30.32,North,0,0.0,0.0,87,0.00,,,0.00,WUHU216HW,2013-02-07 07:40:00,
2013-02-07 01:45:00,35.8,32.2,30.32,North,0,0.0,0.0,87,0.00,,,0.00,WUHU216HW,2013-02-07 07:45:00,
2013-02-07 01:50:00,36.0,32.4,30.32,North,0,0.0,0.0,87,0.00,,,0.00,WUHU216HW,2013-02-07 07:50:00,
2013-02-07 01:55:00,36.0,32.4,30.32,North,0,0.0,0.0,87,0.00,,,0.00,WUHU216HW,2013-02-07 07:55:00,
2013-02-07 02:00:00,36.0,32.4,30.32,North,0,0.0,0.0,87,0.00,,,0.00,WUHU216HW,2013-02-07 08:00:00,
2013-02-07 02:05:00,36.0,32.4,30.32,North,0,0.0,0.0,87,0.00,,,0.00,WUHU216HW,2013-02-07 08:05:00,
2013-02-07 02:10:00,36.0,32.4,30.32,North,0,0.0,0.0,87,0.00,,,0.00,WUHU216HW,2013-02-07 08:10:00,
2013-02-07 02:15:00,36.0,32.4,30.33,North,0,0.0,0.0,87,0.00,,,0.00,WUHU216HW,2013-02-07 08:15:00,
2013-02-07 02:20:00,36.0,32.4,30.32,North,0,0.0,0.0,87,0.01,,,0.01,WUHU216HW,2013-02-07 08:20:00,
2013-02-07 02:25:00,36.0,32.4,30.32,North,0,0.0,0.0,87,0.01,,,0.01,WUHU216HW,2013-02-07 08:25:00,
2013-02-07 02:30:00,36.0,32.4,30.32,North,0,0.0,0.0,87,0.01,,,0.01,WUHU216HW,2013-02-07 08:30:00,
2013-02-07 02:35:00,35.8,32.2,30.32,North,0,0.0,0.0,87,0.01,,,0.01,WUHU216HW,2013-02-07 08:35:00,
2013-02-07 02:40:00,35.8,32.2,30.32,North,0,0.0,0.0,87,0.01,,,0.01,WUHU216HW,2013-02-07 08:40:00,
2013-02-07 02:45:00,35.6,31.8,30.32,North,0,0.0,0.0,86,0.01,,,0.01,WUHU216HW,2013-02-07 08:45:00,
2013-02-07 02:50:00,35.6,31.8,30.32,North,0,0.0,0.0,86,0.02,,,0.01,WUHU216HW,2013-02-07 08:50:00,
2013-02-07 02:55:00,35.6,31.8,30.32,North,0,0.0,0.0,86,0.02,,,0.02,WUHU216HW,2013-02-07 08:55:00,
2013-02-07 03:00:00,35.5,31.9,30.31,North,0,0.0,0.0,87,0.02,,,0.02,WUHU216HW,2013-02-07 09:00:00,
2013-02-07 03:05:00,35.5,31.9,30.31,North,0,0.0,0.0,87,0.02,,,0.02,WUHU216HW,2013-02-07 09:05:00,
2013-02-07 03:10:00,35.3,31.7,30.31,North,0,0.0,0.0,87,0.02,,,0.02,WUHU216HW,2013-02-07 09:10:00,
2013-02-07 03:15:00,35.1,31.5,30.31,North,0,0.0,0.0,87,0.02,,,0.02,WUHU216HW,2013-02-07 09:15:00,
2013-02-07 03:20:00,35.1,31.9,30.31,North,0,0.0,0.0,88,0.02,,,0.03,WUHU216HW,2013-02-07 09:20:00,
2013-02-07 03:25:00,35.1,31.9,30.31,North,0,0.0,0.0,88,0.02,,,0.03,WUHU216HW,2013-02-07 09:25:00,
2013-02-07 03:30:00,34.9,31.7,30.30,North,0,0.0,0.0,88,0.02,,,0.03,WUHU216HW,2013-02-07 09:30:00,
2013-02-07 03:35:00,34.9,31.7,30.30,North,0,0.0,0.0,88,0.02,,,0.03,WUHU216HW,2013-02-07 09:35:00,
2013-02-07 03:40:00,34.9,31.7,30.30,North,0,0.0,0.0,88,0.03,,,0.03,WUHU216HW,2013-02-07 09:40:00,
2013-02-07 03:45:00,34.9,31.7,30.31,North,0,0.0,0.0,88,0.03,,,0.04,WUHU216HW,2013-02-07 09:45:00,
2013-02-07 03:50:00,35.1,31.9,30.31,North,0,0.0,0.0,88,0.02,,,0.04,WUHU216HW,2013-02-07 09:50:00,
2013-02-07 03:55:00,35.3,32.1,30.31,North,0,0.0,0.0,88,0.02,,,0.04,WUHU216HW,2013-02-07 09:55:00,
2013-02-07 04:00:00,35.1,31.9,30.30,North,0,0.0,0.0,88,0.02,,,0.04,WUHU216HW,2013-02-07 10:00:00,
2013-02-07 04:05:00,35.3,32.1,30.31,North,0,0.0,0.0,88,0.02,,,0.04,WUHU216HW,2013-02-07 10:05:00,
2013-02-07 04:10:00,35.3,32.3,30.31,North,0,0.0,0.0,89,0.03,,,0.05,WUHU216HW,2013-02-07 10:10:00,
2013-02-07 04:15:00,35.3,32.3,30.31,North,0,0.0,0.0,89,0.02,,,0.05,WUHU216HW,2013-02-07 10:15:00,
2013-02-07 04:20:00,35.3,32.3,30.31,North,0,0.0,0.0,89,0.02,,,0.05,WUHU216HW,2013-02-07 10:20:00,
2013-02-07 04:25:00,35.3,32.3,30.31,North,0,0.0,0.0,89,0.02,,,0.05,WUHU216HW,2013-02-07 10:25:00,
2013-02-07 04:30:00,35.3,32.3,30.31,North,0,0.0,0.0,89,0.03,,,0.06,WUHU216HW,2013-02-07 10:30:00,
2013-02-07 04:35:00,35.3,32.3,30.31,North,0,0.0,0.0,89,0.03,,,0.06,WUHU216HW,2013-02-07 10:35:00,
2013-02-07 04:40:00,35.1,32.1,30.31,North,0,0.0,0.0,89,0.02,,,0.06,WUHU216HW,2013-02-07 10:40:00,
2013-02-07 04:45:00,35.1,32.1,30.30,North,0,0.0,0.0,89,0.03,,,0.07,WUHU216HW,2013-02-07 10:45:00,
2013-02-07 04:50:00,35.1,32.1,30.30,North,0,0.0,0.0,89,0.03,,,0.07,WUHU216HW,2013-02-07 10:50:00,
2013-02-07 04:55:00,35.1,32.1,30.30,North,0,0.0,0.0,89,0.03,,,0.07,WUHU216HW,2013-02-07 10:55:00,
2013-02-07 05:00:00,35.1,32.1,30.30,North,0,0.0,0.0,89,0.03,,,0.07,WUHU216HW,2013-02-07 11:00:00,
2013-02-07 05:05:00,34.9,32.0,30.30,North,0,0.0,0.0,89,0.02,,,0.07,WUHU216HW,2013-02-07 11:05:00,
2013-02-07 05:10:00,34.9,32.0,30.30,North,0,0.0,0.0,89,0.03,,,0.08,WUHU216HW,2013-02-07 11:10:00,
2013-02-07 05:15:00,34.9,32.0,30.30,North,0,0.0,0.0,89,0.03,,,0.08,WUHU216HW,2013-02-07 11:15:00,
2013-02-07 05:20:00,34.9,32.0,30.29,North,0,0.0,0.0,89,0.03,,,0.08,WUHU216HW,2013-02-07 11:20:00,
2013-02-07 05:25:00,34.9,32.0,30.29,North,0,0.0,0.0,89,0.02,,,0.08,WUHU216HW,2013-02-07 11:25:00,
2013-02-07 05:30:00,34.7,31.8,30.29,North,0,0.0,0.0,89,0.02,,,0.08,WUHU216HW,2013-02-07 11:30:00,
2013-02-07 05:35:00,34.7,32.0,30.29,North,0,0.0,0.0,90,0.03,,,0.09,WUHU216HW,2013-02-07 11:35:00,
2013-02-07 05:40:00,34.7,32.0,30.29,North,0,0.0,0.0,90,0.02,,,0.09,WUHU216HW,2013-02-07 11:40:00,
2013-02-07 05:45:00,34.7,32.0,30.29,North,0,0.0,0.0,90,0.02,,,0.09,WUHU216HW,2013-02-07 11:45:00,
2013-02-07 05:50:00,34.7,32.0,30.29,North,0,0.0,0.0,90,0.02,,,0.09,WUHU216HW,2013-02-07 11:50:00,
2013-02-07 05:55:00,34.7,32.0,30.29,North,0,0.0,0.0,90,0.02,,,0.09,WUHU216HW,2013-02-07 11:55:00,
2013-02-07 06:00:00,34.7,32.0,30.29,North,0,0.0,0.0,90,0.02,,,0.09,WUHU216HW,2013-02-07 12:00:00,
2013-02-07 06:05:00,34.7,32.0,30.29,North,0,0.0,0.0,90,0.02,,,0.09,WUHU216HW,2013-02-07 12:05:00,
2013-02-07 06:10:00,34.7,32.0,30.29,North,0,0.0,0.0,90,0.01,,,0.09,WUHU216HW,2013-02-07 12:10:00,
2013-02-07 06:15:00,34.6,31.9,30.29,North,0,0.0,0.0,90,0.02,,,0.09,WUHU216HW,2013-02-07 12:15:00,
2013-02-07 06:20:00,34.6,31.9,30.29,North,0,0.0,0.0,90,0.02,,,0.10,WUHU216HW,2013-02-07 12:20:00,
2013-02-07 06:25:00,34.6,31.9,30.29,North,0,0.0,0.0,90,0.02,,,0.10,WUHU216HW,2013-02-07 12:25:00,
2013-02-07 06:30:00,34.6,31.9,30.29,North,0,0.0,0.0,90,0.01,,,0.10,WUHU216HW,2013-02-07 12:30:00,
2013-02-07 06:35:00,34.6,31.9,30.28,North,0,0.0,0.0,90,0.01,,,0.10,WUHU216HW,2013-02-07 12:35:00,
2013-02-07 06:40:00,34.6,31.9,30.28,North,0,0.0,0.0,90,0.01,,,0.10,WUHU216HW,2013-02-07 12:40:00,
2013-02-07 06:45:00,34.6,31.9,30.28,North,0,0.0,0.0,90,0.01,,,0.10,WUHU216HW,2013-02-07 12:45:00,
2013-02-07 06:50:00,34.6,31.9,30.28,North,0,0.0,0.0,90,0.01,,,0.10,WUHU216HW,2013-02-07 12:50:00,
2013-02-07 06:55:00,34.6,32.1,30.28,North,0,0.0,0.0,91,0.01,,,0.10,WUHU216HW,2013-02-07 12:55:00,
2013-02-07 07:00:00,34.6,32.1,30.28,North,0,0.0,0.0,91,0.01,,,0.10,WUHU216HW,2013-02-07 13:00:00,
2013-02-07 07:05:00,34.6,32.1,30.27,North,0,0.0,0.0,91,0.01,,,0.10,WUHU216HW,2013-02-07 13:05:00,
2013-02-07 07:10:00,34.6,32.1,30.27,North,0,0.0,0.0,91,0.00,,,0.10,WUHU216HW,2013-02-07 13:10:00,
2013-02-07 07:15:00,34.6,32.1,30.28,North,0,0.0,0.0,91,0.00,,,0.10,WUHU216HW,2013-02-07 13:15:00,
2013-02-07 07:20:00,34.6,32.1,30.28,North,0,0.0,0.0,91,0.00,,,0.10,WUHU216HW,2013-02-07 13:20:00,
2013-02-07 07:25:00,34.6,32.1,30.29,North,0,0.0,0.0,91,0.00,,,0.10,WUHU216HW,2013-02-07 13:25:00,
2013-02-07 07:30:00,34.6,32.1,30.29,North,0,0.0,0.0,91,0.01,,,0.11,WUHU216HW,2013-02-07 13:30:00,
2013-02-07 07:35:00,34.6,32.1,30.28,North,0,0.0,0.0,91,0.01,,,0.11,WUHU216HW,2013-02-07 13:35:00,
2013-02-07 07:40:00,34.4,32.0,30.28,North,0,0.0,0.0,91,0.01,,,0.11,WUHU216HW,2013-02-07 13:40:00,
2013-02-07 07:45:00,34.4,32.0,30.28,North,0,0.0,0.0,91,0.02,,,0.12,WUHU216HW,2013-02-07 13:45:00,
2013-02-07 07:50:00,34.4,32.0,30.28,North,0,0.0,0.0,91,0.02,,,0.12,WUHU216HW,2013-02-07 13:50:00,
2013-02-07 07:55:00,34.4,32.0,30.28,North,0,0.0,0.0,91,0.02,,,0.12,WUHU216HW,2013-02-07 13:55:00,
2013-02-07 08:00:00,34.4,32.0,30.28,North,0,0.0,0.0,91,0.02,,,0.12,WUHU216HW,2013-02-07 14:00:00,
2013-02-07 08:05:00,34.4,32.0,30.28,North,0,0.0,0.0,91,0.02,,,0.12,WUHU216HW,2013-02-07 14:05:00,
2013-02-07 08:10:00,34.4,32.2,30.28,North,0,0.0,0.0,92,0.02,,,0.12,WUHU216HW,2013-02-07 14:10:00,
2013-02-07 08:15:00,34.4,32.2,30.28,North,0,0.0,0.0,92,0.02,,,0.12,WUHU216HW,2013-02-07 14:15:00,
2013-02-07 08:20:00,34.4,32.2,30.28,North,0,0.0,0.0,92,0.03,,,0.12,WUHU216HW,2013-02-07 14:20:00,
2013-02-07 08:25:00,34.4,32.2,30.28,North,0,0.0,0.0,92,0.02,,,0.13,WUHU216HW,2013-02-07 14:25:00,
2013-02-07 08:30:00,34.6,32.4,30.29,North,0,0.0,0.0,92,0.02,,,0.13,WUHU216HW,2013-02-07 14:30:00,
2013-02-07 08:35:00,34.6,32.4,30.28,North,0,0.0,0.0,92,0.02,,,0.13,WUHU216HW,2013-02-07 14:35:00,
2013-02-07 08:40:00,34.4,32.2,30.28,North,0,0.0,0.0,92,0.03,,,0.14,WUHU216HW,2013-02-07 14:40:00,
2013-02-07 08:45:00,34.6,32.4,30.28,North,0,0.0,0.0,92,0.03,,,0.16,WUHU216HW,2013-02-07 14:45:00,
2013-02-07 08:50:00,34.6,32.4,30.28,North,0,0.0,0.0,92,0.04,,,0.16,WUHU216HW,2013-02-07 14:50:00,
2013-02-07 08:55:00,34.6,32.4,30.28,North,0,0.0,0.0,92,0.05,,,0.17,WUHU216HW,2013-02-07 14:55:00,
2013-02-07 09:00:00,34.6,32.4,30.28,North,0,0.0,0.0,92,0.05,,,0.17,WUHU216HW,2013-02-07 15:00:00,
2013-02-07 09:05:00,34.6,32.4,30.28,North,0,0.0,0.0,92,0.06,,,0.18,WUHU216HW,2013-02-07 15:05:00,
2013-02-07 09:10:00,34.7,32.6,30.28,North,0,0.0,0.0,92,0.06,,,0.18,WUHU216HW,2013-02-07 15:10:00,
2013-02-07 09:15:00,34.7,32.6,30.28,North,0,0.0,0.0,92,0.07,,,0.18,WUHU216HW,2013-02-07 15:15:00,
2013-02-07 09:20:00,34.7,32.6,30.28,North,0,0.0,0.0,92,0.06,,,0.19,WUHU216HW,2013-02-07 15:20:00,
2013-02-07 09:25:00,34.9,32.8,30.27,North,0,0.0,0.0,92,0.06,,,0.19,WUHU216HW,2013-02-07 15:25:00,
2013-02-07 09:30:00,34.9,32.8,30.28,North,0,0.0,0.0,92,0.07,,,0.20,WUHU216HW,2013-02-07 15:30:00,
2013-02-07 09:35:00,34.9,32.8,30.27,North,0,0.0,0.0,92,0.06,,,0.20,WUHU216HW,2013-02-07 15:35:00,
2013-02-07 09:40:00,34.7,32.6,30.27,North,0,0.0,0.0,92,0.05,,,0.20,WUHU216HW,2013-02-07 15:40:00,
2013-02-07 09:45:00,34.7,32.6,30.27,North,0,0.0,0.0,92,0.05,,,0.21,WUHU216HW,2013-02-07 15:45:00,
2013-02-07 09:50:00,34.7,32.6,30.27,North,0,0.0,0.0,92,0.05,,,0.21,WUHU216HW,2013-02-07 15:50:00,
2013-02-07 09:55:00,34.7,32.6,30.27,North,0,0.0,0.0,92,0.05,,,0.23,WUHU216HW,2013-02-07 15:55:00,
2013-02-07 10:00:00,34.7,32.6,30.27,North,0,0.0,0.0,92,0.05,,,0.23,WUHU216HW,2013-02-07 16:00:00,
2013-02-07 10:05:00,34.7,32.6,30.27,North,0,0.0,0.0,92,0.05,,,0.23,WUHU216HW,2013-02-07 16:05:00,
2013-02-07 10:10:00,34.7,32.6,30.27,North,0,0.0,0.0,92,0.06,,,0.25,WUHU216HW,2013-02-07 16:10:00,
2013-02-07 10:15:00,34.7,32.6,30.27,North,0,0.0,0.0,92,0.06,,,0.25,WUHU216HW,2013-02-07 16:15:00,
2013-02-07 10:20:00,34.9,32.8,30.27,North,0,0.0,0.0,92,0.06,,,0.25,WUHU216HW,2013-02-07 16:20:00,
2013-02-07 10:25:00,34.9,32.8,30.27,North,0,0.0,0.0,92,0.06,,,0.27,WUHU216HW,2013-02-07 16:25:00,
2013-02-07 10:30:00,34.9,32.8,30.27,North,0,0.0,0.0,92,0.07,,,0.28,WUHU216HW,2013-02-07 16:30:00,
2013-02-07 10:35:00,34.9,32.8,30.27,North,0,0.0,0.0,92,0.07,,,0.28,WUHU216HW,2013-02-07 16:35:00,
2013-02-07 10:40:00,35.1,32.9,30.27,North,0,0.0,0.0,92,0.07,,,0.29,WUHU216HW,2013-02-07 16:40:00,
2013-02-07 10:45:00,35.3,33.1,30.27,North,0,0.0,0.0,92,0.07,,,0.29,WUHU216HW,2013-02-07 16:45:00,
2013-02-07 10:50:00,35.3,33.1,30.27,North,0,0.0,0.0,92,0.06,,,0.29,WUHU216HW,2013-02-07 16:50:00,
2013-02-07 10:55:00,35.5,33.3,30.27,North,0,0.0,0.0,92,0.06,,,0.29,WUHU216HW,2013-02-07 16:55:00,
2013-02-07 11:00:00,35.3,33.1,30.27,North,0,0.0,0.0,92,0.07,,,0.30,WUHU216HW,2013-02-07 17:00:00,
2013-02-07 11:05:00,35.5,33.3,30.27,North,0,0.0,0.0,92,0.05,,,0.30,WUHU216HW,2013-02-07 17:05:00,
2013-02-07 11:10:00,35.5,33.3,30.27,North,0,0.0,0.0,92,0.05,,,0.30,WUHU216HW,2013-02-07 17:10:00,
2013-02-07 11:15:00,35.6,33.5,30.27,North,0,0.0,0.0,92,0.04,,,0.30,WUHU216HW,2013-02-07 17:15:00,
2013-02-07 11:20:00,35.6,33.5,30.26,North,0,0.0,0.0,92,0.04,,,0.30,WUHU216HW,2013-02-07 17:20:00,
2013-02-07 11:25:00,35.6,33.5,30.26,North,0,0.0,0.0,92,0.04,,,0.30,WUHU216HW,2013-02-07 17:25:00,
2013-02-07 11:30:00,35.6,33.5,30.25,North,0,0.0,0.0,92,0.03,,,0.30,WUHU216HW,2013-02-07 17:30:00,
2013-02-07 11:35:00,35.6,33.5,30.25,North,0,0.0,0.0,92,0.03,,,0.30,WUHU216HW,2013-02-07 17:35:00,
2013-02-07 11:40:00,35.6,33.5,30.25,North,0,0.0,0.0,92,0.02,,,0.30,WUHU216HW,2013-02-07 17:40:00,
2013-02-07 11:45:00,35.6,33.5,30.25,North,0,0.0,0.0,92,0.03,,,0.32,WUHU216HW,2013-02-07 17:45:00,
2013-02-07 11:50:00,35.6,33.5,30.24,North,0,0.0,0.0,92,0.03,,,0.32,WUHU216HW,2013-02-07 17:50:00,
2013-02-07 11:55:00,35.6,33.5,30.24,North,0,0.0,0.0,92,0.04,,,0.32,WUHU216HW,2013-02-07 17:55:00,
2013-02-07 12:00:00,35.8,33.7,30.24,North,0,0.0,0.0,92,0.03,,,0.32,WUHU216HW,2013-02-07 18:00:00,
2013-02-07 12:05:00,35.8,33.9,30.24,North,0,0.0,0.0,93,0.04,,,0.34,WUHU216HW,2013-02-07 18:05:00,
2013-02-07 12:10:00,35.8,33.9,30.24,North,0,0.0,0.0,93,0.05,,,0.34,WUHU216HW,2013-02-07 18:10:00,
2013-02-07 12:15:00,35.8,33.9,30.24,North,0,0.0,0.0,93,0.05,,,0.35,WUHU216HW,2013-02-07 18:15:00,
2013-02-07 12:20:00,36.0,34.1,30.23,North,0,0.0,0.0,93,0.04,,,0.35,WUHU216HW,2013-02-07 18:20:00,
2013-02-07 12:25:00,36.0,34.1,30.23,North,0,0.0,0.0,93,0.05,,,0.36,WUHU216HW,2013-02-07 18:25:00,
2013-02-07 12:30:00,36.0,34.1,30.23,North,0,0.0,0.0,93,0.05,,,0.36,WUHU216HW,2013-02-07 18:30:00,
2013-02-07 12:35:00,36.0,34.1,30.23,North,0,0.0,0.0,93,0.06,,,0.37,WUHU216HW,2013-02-07 18:35:00,
2013-02-07 12:40:00,35.8,33.9,30.23,North,0,0.0,0.0,93,0.05,,,0.37,WUHU216HW,2013-02-07 18:40:00,
2013-02-07 12:45:00,36.0,34.1,30.22,North,0,0.0,0.0,93,0.06,,,0.38,WUHU216HW,2013-02-07 18:45:00,
2013-02-07 12:50:00,35.8,33.9,30.22,North,0,0.0,0.0,93,0.05,,,0.38,WUHU216HW,2013-02-07 18:50:00,
2013-02-07 12:55:00,36.0,34.1,30.22,North,0,0.0,0.0,93,0.06,,,0.39,WUHU216HW,2013-02-07 18:55:00,
2013-02-07 13:00:00,36.0,34.1,30.22,North,0,0.0,0.0,93,0.07,,,0.40,WUHU216HW,2013-02-07 19:00:00,
2013-02-07 13:05:00,35.8,33.9,30.22,North,0,0.0,0.0,93,0.06,,,0.40,WUHU216HW,2013-02-07 19:05:00,
2013-02-07 13:10:00,35.8,33.9,30.22,North,0,0.0,0.0,93,0.05,,,0.40,WUHU216HW,2013-02-07 19:10:00,
2013-02-07 13:15:00,36.2,34.3,30.22,North,0,0.0,0.0,93,0.06,,,0.41,WUHU216HW,2013-02-07 19:15:00,
2013-02-07 13:20:00,36.2,34.3,30.22,North,0,0.0,0.0,93,0.05,,,0.41,WUHU216HW,2013-02-07 19:20:00,
2013-02-07 13:25:00,36.4,34.5,30.21,North,0,0.0,0.0,93,0.05,,,0.41,WUHU216HW,2013-02-07 19:25:00,
2013-02-07 13:30:00,36.4,34.5,30.21,North,0,0.0,0.0,93,0.04,,,0.41,WUHU216HW,2013-02-07 19:30:00,
2013-02-07 13:35:00,36.5,34.7,30.21,North,0,0.0,0.0,93,0.04,,,0.41,WUHU216HW,2013-02-07 19:35:00,
2013-02-07 13:40:00,36.5,34.7,30.21,North,0,0.0,0.0,93,0.04,,,0.42,WUHU216HW,2013-02-07 19:40:00,
2013-02-07 13:45:00,36.4,34.5,30.21,North,0,0.0,0.0,93,0.04,,,0.42,WUHU216HW,2013-02-07 19:45:00,
2013-02-07 13:50:00,36.4,34.5,30.21,North,0,0.0,0.0,93,0.03,,,0.42,WUHU216HW,2013-02-07 19:50:00,
2013-02-07 13:55:00,36.2,34.3,30.20,North,0,0.0,0.0,93,0.03,,,0.42,WUHU216HW,2013-02-07 19:55:00,
2013-02-07 14:00:00,36.2,34.3,30.20,North,0,0.0,0.0,93,0.02,,,0.42,WUHU216HW,2013-02-07 20:00:00,
2013-02-07 14:05:00,36.4,34.5,30.20,North,0,0.0,0.0,93,0.03,,,0.43,WUHU216HW,2013-02-07 20:05:00,
2013-02-07 14:10:00,36.4,34.5,30.21,North,0,0.0,0.0,93,0.02,,,0.43,WUHU216HW,2013-02-07 20:10:00,
2013-02-07 14:15:00,36.4,34.5,30.20,North,0,0.0,0.0,93,0.02,,,0.43,WUHU216HW,2013-02-07 20:15:00,
2013-02-07 14:20:00,36.2,34.3,30.20,North,0,0.0,0.0,93,0.02,,,0.43,WUHU216HW,2013-02-07 20:20:00,
2013-02-07 14:25:00,36.2,34.3,30.20,North,0,0.0,0.0,93,0.02,,,0.43,WUHU216HW,2013-02-07 20:25:00,
2013-02-07 14:30:00,36.2,34.3,30.20,North,0,0.0,0.0,93,0.03,,,0.43,WUHU216HW,2013-02-07 20:30:00,
2013-02-07 14:35:00,36.0,34.1,30.20,North,0,0.0,0.0,93,0.02,,,0.44,WUHU216HW,2013-02-07 20:35:00,
2013-02-07 14:40:00,36.0,34.1,30.20,North,0,0.0,0.0,93,0.02,,,0.44,WUHU216HW,2013-02-07 20:40:00,
2013-02-07 14:45:00,36.2,34.3,30.20,North,0,0.0,0.0,93,0.02,,,0.44,WUHU216HW,2013-02-07 20:45:00,
2013-02-07 14:50:00,36.2,34.0,30.20,North,0,0.0,0.0,92,0.02,,,0.44,WUHU216HW,2013-02-07 20:50:00,
2013-02-07 14:55:00,36.0,33.8,30.20,North,0,0.0,0.0,92,0.02,,,0.44,WUHU216HW,2013-02-07 20:55:00,
2013-02-07 15:00:00,36.0,33.8,30.20,North,0,0.0,0.0,92,0.01,,,0.44,WUHU216HW,2013-02-07 21:00:00,
2013-02-07 15:05:00,35.8,33.7,30.20,North,0,0.0,0.0,92,0.02,,,0.45,WUHU216HW,2013-02-07 21:05:00,
2013-02-07 15:10:00,35.8,33.7,30.20,North,0,0.0,0.0,92,0.02,,,0.45,WUHU216HW,2013-02-07 21:10:00,
2013-02-07 15:15:00,35.6,33.5,30.19,North,0,0.0,0.0,92,0.02,,,0.45,WUHU216HW,2013-02-07 21:15:00,
2013-02-07 15:20:00,35.8,33.7,30.20,North,0,0.0,0.0,92,0.02,,,0.45,WUHU216HW,2013-02-07 21:20:00,
2013-02-07 15:25:00,35.8,33.7,30.20,North,0,0.0,0.0,92,0.02,,,0.45,WUHU216HW,2013-02-07 21:25:00,
2013-02-07 15:30:00,35.8,33.7,30.20,North,0,0.0,0.0,92,0.01,,,0.45,WUHU216HW,2013-02-07 21:30:00,
2013-02-07 15:35:00,35.8,33.7,30.20,North,0,0.0,0.0,92,0.01,,,0.45,WUHU216HW,2013-02-07 21:35:00,
2013-02-07 15:40:00,35.8,33.7,30.20,North,0,0.0,0.0,92,0.01,,,0.45,WUHU216HW,2013-02-07 21:40:00,
2013-02-07 15:45:00,35.8,33.7,30.19,North,0,0.0,0.0,92,0.01,,,0.45,WUHU216HW,2013-02-07 21:45:00,
2013-02-07 15:50:00,36.0,33.8,30.20,North,0,0.0,0.0,92,0.01,,,0.45,WUHU216HW,2013-02-07 21:50:00,
2013-02-07 15:55:00,35.8,33.7,30.20,North,0,0.0,0.0,92,0.01,,,0.45,WUHU216HW,2013-02-07 21:55:00,
2013-02-07 16:00:00,35.8,33.7,30.21,North,0,0.0,0.0,92,0.01,,,0.46,WUHU216HW,2013-02-07 22:00:00,
2013-02-07 16:05:00,35.6,33.5,30.21,North,0,0.0,0.0,92,0.01,,,0.46,WUHU216HW,2013-02-07 22:05:00,
2013-02-07 16:10:00,35.6,33.5,30.21,North,0,0.0,0.0,92,0.01,,,0.46,WUHU216HW,2013-02-07 22:10:00,
2013-02-07 16:15:00,35.3,33.1,30.22,North,0,0.0,0.0,92,0.01,,,0.46,WUHU216HW,2013-02-07 22:15:00,
2013-02-07 16:20:00,35.1,32.9,30.22,North,0,0.0,0.0,92,0.01,,,0.46,WUHU216HW,2013-02-07 22:20:00,
2013-02-07 16:25:00,34.9,32.8,30.22,North,0,0.0,0.0,92,0.01,,,0.46,WUHU216HW,2013-02-07 22:25:00,
2013-02-07 16:30:00,34.7,32.6,30.22,North,0,0.0,0.0,92,0.01,,,0.46,WUHU216HW,2013-02-07 22:30:00,
2013-02-07 16:35:00,34.4,32.2,30.22,North,0,0.0,0.0,92,0.01,,,0.46,WUHU216HW,2013-02-07 22:35:00,
2013-02-07 16:40:00,34.2,32.0,30.22,North,0,0.0,0.0,92,0.01,,,0.46,WUHU216HW,2013-02-07 22:40:00,
2013-02-07 16:45:00,34.0,31.9,30.22,North,0,0.0,0.0,92,0.01,,,0.46,WUHU216HW,2013-02-07 22:45:00,
2013-02-07 16:50:00,33.8,31.7,30.22,North,0,0.0,0.0,92,0.01,,,0.46,WUHU216HW,2013-02-07 22:50:00,
2013-02-07 16:55:00,33.7,31.5,30.22,North,0,0.0,0.0,92,0.01,,,0.46,WUHU216HW,2013-02-07 22:55:00,
2013-02-07 17:00:00,33.5,31.3,30.22,North,0,0.0,0.0,92,0.00,,,0.46,WUHU216HW,2013-02-07 23:00:00,
2013-02-07 17:05:00,33.5,31.3,30.22,North,0,0.0,0.0,92,0.00,,,0.46,WUHU216HW,2013-02-07 23:05:00,
2013-02-07 17:10:00,33.5,31.3,30.22,North,0,0.0,0.0,92,0.00,,,0.46,WUHU216HW,2013-02-07 23:10:00,
2013-02-07 17:15:00,33.5,31.3,30.22,North,0,0.0,0.0,92,0.00,,,0.46,WUHU216HW,2013-02-07 23:15:00,
2013-02-07 17:20:00,33.3,31.1,30.22,North,0,0.0,0.0,92,0.00,,,0.46,WUHU216HW,2013-02-07 23:20:00,
2013-02-07 17:25:00,33.1,31.1,30.23,North,0,0.0,0.0,92,0.00,,,0.46,WUHU216HW,2013-02-07 23:25:00,
2013-02-07 17:30:00,33.3,31.4,30.23,North,0,0.0,0.0,93,0.01,,,0.46,WUHU216HW,2013-02-07 23:30:00,
2013-02-07 17:35:00,33.1,31.1,30.23,North,0,0.0,0.0,92,0.01,,,0.47,WUHU216HW,2013-02-07 23:35:00,
2013-02-07 17:40:00,33.1,31.1,30.23,North,0,0.0,0.0,92,0.01,,,0.47,WUHU216HW,2013-02-07 23:40:00,
2013-02-07 17:45:00,33.1,31.1,30.24,North,0,0.0,0.0,92,0.01,,,0.47,WUHU216HW,2013-02-07 23:45:00,
2013-02-07 17:50:00,33.1,31.1,30.24,North,0,0.0,0.0,92,0.01,,,0.47,WUHU216HW,2013-02-07 23:50:00,
2013-02-07 17:55:00,33.1,31.1,30.24,North,0,0.0,0.0,92,0.01,,,0.47,WUHU216HW,2013-02-07 23:55:00,
2013-02-07 18:00:00,33.1,31.1,30.25,North,0,0.0,0.0,92,0.01,,,0.47,WUHU216HW,2013-02-08 00:00:00,
2013-02-07 18:05:00,33.1,31.1,30.25,North,0,0.0,0.0,92,0.01,,,0.47,WUHU216HW,2013-02-08 00:05:00,
2013-02-07 18:10:00,32.9,30.9,30.25,North,0,0.0,0.0,92,0.01,,,0.47,WUHU216HW,2013-02-08 00:10:00,
2013-02-07 18:15:00,33.1,31.1,30.25,North,0,0.0,0.0,92,0.01,,,0.47,WUHU216HW,2013-02-08 00:15:00,
2013-02-07 18:20:00,32.9,30.9,30.26,North,0,0.0,0.0,92,0.01,,,0.47,WUHU216HW,2013-02-08 00:20:00,
2013-02-07 18:25:00,32.9,30.9,30.27,North,0,0.0,0.0,92,0.01,,,0.47,WUHU216HW,2013-02-08 00:25:00,
2013-02-07 18:30:00,32.9,30.9,30.27,North,0,0.0,0.0,92,0.00,,,0.47,WUHU216HW,2013-02-08 00:30:00,
2013-02-07 18:35:00,32.8,30.7,30.27,North,0,0.0,0.0,92,0.00,,,0.47,WUHU216HW,2013-02-08 00:35:00,
2013-02-07 18:40:00,32.9,30.9,30.27,North,0,0.0,0.0,92,0.00,,,0.47,WUHU216HW,2013-02-08 00:40:00,
2013-02-07 18:45:00,32.8,30.7,30.27,North,0,0.0,0.0,92,0.00,,,0.47,WUHU216HW,2013-02-08 00:45:00,
2013-02-07 18:50:00,32.8,30.7,30.27,North,0,0.0,0.0,92,0.00,,,0.47,WUHU216HW,2013-02-08 00:50:00,
2013-02-07 18:55:00,32.8,30.7,30.29,North,0,0.0,0.0,92,0.00,,,0.47,WUHU216HW,2013-02-08 00:55:00,
2013-02-07 19:00:00,32.8,30.7,30.29,North,0,0.0,0.0,92,0.00,,,0.47,WUHU216HW,2013-02-08 01:00:00,
2013-02-07 19:05:00,32.8,31.0,30.29,North,0,0.0,0.0,93,0.00,,,0.47,WUHU216HW,2013-02-08 01:05:00,
2013-02-07 19:10:00,32.8,31.0,30.30,North,0,0.0,0.0,93,0.00,,,0.47,WUHU216HW,2013-02-08 01:10:00,
2013-02-07 19:15:00,32.8,31.0,30.30,North,0,0.0,0.0,93,0.00,,,0.47,WUHU216HW,2013-02-08 01:15:00,
2013-02-07 19:20:00,32.9,31.2,30.30,North,0,0.0,0.0,93,0.00,,,0.47,WUHU216HW,2013-02-08 01:20:00,
2013-02-07 19:25:00,32.9,31.2,30.30,North,0,0.0,0.0,93,0.00,,,0.47,WUHU216HW,2013-02-08 01:25:00,
2013-02-07 19:30:00,32.9,31.2,30.30,North,0,0.0,0.0,93,0.00,,,0.47,WUHU216HW,2013-02-08 01:30:00,
2013-02-07 19:43:00,33.1,31.3,30.31,North,0,0.0,0.0,93,0.01,,,0.47,WUHU216HW,2013-02-08 01:43:00,
2013-02-07 19:48:00,33.1,31.3,30.31,North,0,0.0,0.0,93,0.01,,,0.48,WUHU216HW,2013-02-08 01:48:00,
2013-02-07 19:53:00,33.1,31.3,30.31,North,0,0.0,0.0,93,0.01,,,0.48,WUHU216HW,2013-02-08 01:53:00,
2013-02-07 19:58:00,33.1,31.3,30.32,North,0,0.0,0.0,93,0.01,,,0.48,WUHU216HW,2013-02-08 01:58:00,
2013-02-07 20:03:00,33.1,31.3,30.32,North,0,0.0,0.0,93,0.01,,,0.48,WUHU216HW,2013-02-08 02:03:00,
2013-02-07 20:08:00,33.1,31.3,30.32,North,0,0.0,0.0,93,0.01,,,0.48,WUHU216HW,2013-02-08 02:08:00,
2013-02-07 20:13:00,33.1,31.3,30.32,North,0,0.0,0.0,93,0.01,,,0.48,WUHU216HW,2013-02-08 02:13:00,
2013-02-07 20:18:00,33.1,31.3,30.32,North,0,0.0,0.0,93,0.01,,,0.48,WUHU216HW,2013-02-08 02:18:00,
2013-02-07 20:23:00,33.1,31.3,30.32,North,0,0.0,0.0,93,0.01,,,0.48,WUHU216HW,2013-02-08 02:23:00,
2013-02-07 20:28:00,33.1,31.3,30.32,North,0,0.0,0.0,93,0.01,,,0.48,WUHU216HW,2013-02-08 02:28:00,
2013-02-07 20:40:00,33.3,31.4,30.32,North,0,0.0,0.0,93,0.00,,,0.48,WUHU216HW,2013-02-08 02:40:00,
2013-02-07 20:45:00,33.3,31.4,30.32,North,0,0.0,0.0,93,0.00,,,0.48,WUHU216HW,2013-02-08 02:45:00,
2013-02-07 20:50:00,33.3,31.4,30.33,North,0,0.0,0.0,93,0.00,,,0.48,WUHU216HW,2013-02-08 02:50:00,
2013-02-07 20:55:00,33.3,31.4,30.33,North,0,0.0,0.0,93,0.00,,,0.48,WUHU216HW,2013-02-08 02:55:00,
2013-02-07 21:00:00,33.3,31.4,30.33,North,0,0.0,0.0,93,0.00,,,0.48,WUHU216HW,2013-02-08 03:00:00,
2013-02-07 21:05:00,33.3,31.4,30.33,North,0,0.0,0.0,93,0.00,,,0.48,WUHU216HW,2013-02-08 03:05:00,
2013-02-07 21:59:00,32.9,30.6,30.35,North,0,0.0,0.0,91,0.00,,,0.48,WUHU216HW,2013-02-08 03:59:00,
2013-02-07 22:04:00,32.8,30.2,30.35,North,0,0.0,0.0,90,0.00,,,0.48,WUHU216HW,2013-02-08 04:04:00,
2013-02-07 22:09:00,32.6,30.0,30.36,North,0,0.0,0.0,90,0.00,,,0.48,WUHU216HW,2013-02-08 04:09:00,
2013-02-07 22:14:00,32.6,30.0,30.36,North,0,0.0,0.0,90,0.00,,,0.48,WUHU216HW,2013-02-08 04:14:00,
2013-02-07 22:19:00,32.2,29.7,30.36,North,0,0.0,0.0,90,0.00,,,0.48,WUHU216HW,2013-02-08 04:19:00,
2013-02-07 22:24:00,32.2,29.7,30.36,North,0,0.0,0.0,90,0.00,,,0.48,WUHU216HW,2013-02-08 04:24:00,
2013-02-07 22:39:00,31.5,28.5,30.37,North,0,0.0,0.0,88,0.00,,,0.48,WUHU216HW,2013-02-08 04:39:00,
2013-02-07 22:44:00,31.5,28.5,30.38,North,0,0.0,0.0,88,0.00,,,0.48,WUHU216HW,2013-02-08 04:44:00,
2013-02-07 22:49:00,31.5,28.1,30.38,North,0,0.0,0.0,87,0.00,,,0.48,WUHU216HW,2013-02-08 04:49:00,
2013-02-07 22:54:00,31.5,28.7,30.38,North,0,0.0,0.0,89,0.00,,,0.48,WUHU216HW,2013-02-08 04:54:00,
2013-02-07 22:59:00,31.5,28.7,30.38,North,0,0.0,0.0,89,0.00,,,0.48,WUHU216HW,2013-02-08 04:59:00,
2013-02-07 23:00:00,31.5,28.7,30.38,North,0,0.0,0.0,89,0.00,,,0.48,WUHU216HW,2013-02-08 05:00:00,
2013-02-07 23:01:00,31.3,28.5,30.38,North,0,0.0,0.0,89,0.00,,,0.48,WUHU216HW,2013-02-08 05:01:00,
2013-02-07 23:06:00,31.3,28.5,30.38,North,0,0.0,0.0,89,0.00,,,0.48,WUHU216HW,2013-02-08 05:06:00,
2013-02-07 23:11:00,31.3,28.5,30.38,North,0,0.0,0.0,89,0.00,,,0.48,WUHU216HW,2013-02-08 05:11:00,
2013-02-07 23:16:00,31.3,28.3,30.38,North,0,0.0,0.0,88,0.00,,,0.48,WUHU216HW,2013-02-08 05:16:00,
2013-02-07 23:21:00,31.3,28.3,30.38,North,0,0.0,0.0,88,0.00,,,0.48,WUHU216HW,2013-02-08 05:21:00,
2013-02-07 23:26:00,31.3,28.5,30.38,North,0,0.0,0.0,89,0.00,,,0.48,WUHU216HW,2013-02-08 05:26:00,
2013-02-07 23:31:00,31.1,28.1,30.39,North,0,0.0,0.0,88,0.00,,,0.48,WUHU216HW,2013-02-08 05:31:00,
2013-02-07 23:36:00,31.1,28.1,30.39,North,0,0.0,0.0,88,0.00,,,0.48,WUHU216HW,2013-02-08 05:36:00,
2013-02-07 23:41:00,31.1,28.1,30.39,North,0,0.0,0.0,88,0.00,,,0.48,WUHU216HW,2013-02-08 05:41:00,
2013-02-07 23:46:00,31.1,28.4,30.39,North,0,0.0,0.0,89,0.00,,,0.48,WUHU216HW,2013-02-08 05:46:00,
2013-02-07 23:51:00,31.1,28.1,30.39,North,0,0.0,0.0,88,0.00,,,0.48,WUHU216HW,2013-02-08 05:51:00,
2013-02-07 23:56:00,31.1,28.1,30.39,North,0,0.0,0.0,88,0.00,,,0.48,WUHU216HW,2013-02-08 05:56:00,